sensor_id;sensor_type;location;lat;lon;timestamp;temperature;humidity
77519;DHT22;66629;47.346;19.038;2023-04-28T00:01:21;4.60;80.50
77519;DHT22;66629;47.346;19.038;2023-04-28T00:03:46;4.57;80.87
77519;DHT22;66629;47.346;19.038;2023-04-28T00:06:12;4.53;81.13
77519;DHT22;66629;47.346;19.038;2023-04-28T00:08:39;4.47;80.45
77519;DHT22;66629;47.346;19.038;2023-04-28T00:11:08;4.33;82.35
77519;DHT22;66629;47.346;19.038;2023-04-28T00:13:34;4.40;82.46
77519;DHT22;66629;47.346;19.038;2023-04-28T00:15:59;4.48;82.03
77519;DHT22;66629;47.346;19.038;2023-04-28T00:18:25;4.40;81.97
77519;DHT22;66629;47.346;19.038;2023-04-28T00:20:51;4.32;82.74
77519;DHT22;66629;47.346;19.038;2023-04-28T00:23:16;4.34;82.54
77519;DHT22;66629;47.346;19.038;2023-04-28T00:25:42;4.32;82.23
77519;DHT22;66629;47.346;19.038;2023-04-28T00:28:07;4.26;82.64
77519;DHT22;66629;47.346;19.038;2023-04-28T00:30:32;4.23;81.99
77519;DHT22;66629;47.346;19.038;2023-04-28T00:32:58;4.20;82.48
77519;DHT22;66629;47.346;19.038;2023-04-28T00:35:23;4.20;82.12
77519;DHT22;66629;47.346;19.038;2023-04-28T00:37:49;4.12;82.41
77519;DHT22;66629;47.346;19.038;2023-04-28T00:40:14;4.15;82.55
77519;DHT22;66629;47.346;19.038;2023-04-28T00:42:40;4.10;82.05
77519;DHT22;66629;47.346;19.038;2023-04-28T00:45:05;4.10;82.21
77519;DHT22;66629;47.346;19.038;2023-04-28T00:47:32;4.07;81.98
77519;DHT22;66629;47.346;19.038;2023-04-28T00:50:00;4.03;82.49
77519;DHT22;66629;47.346;19.038;2023-04-28T00:52:26;3.99;82.57
77519;DHT22;66629;47.346;19.038;2023-04-28T00:54:52;4.01;82.91
77519;DHT22;66629;47.346;19.038;2023-04-28T00:57:18;3.94;82.62
77519;DHT22;66629;47.346;19.038;2023-04-28T00:59:43;3.97;82.17
77519;DHT22;66629;47.346;19.038;2023-04-28T01:02:09;3.95;80.45
77519;DHT22;66629;47.346;19.038;2023-04-28T01:04:42;3.81;82.08
77519;DHT22;66629;47.346;19.038;2023-04-28T01:07:07;3.82;83.23
77519;DHT22;66629;47.346;19.038;2023-04-28T01:09:33;3.74;82.67
77519;DHT22;66629;47.346;19.038;2023-04-28T01:11:58;3.74;82.20
77519;DHT22;66629;47.346;19.038;2023-04-28T01:14:24;3.66;82.34
77519;DHT22;66629;47.346;19.038;2023-04-28T01:16:49;3.64;82.70
77519;DHT22;66629;47.346;19.038;2023-04-28T01:19:19;3.64;82.51
77519;DHT22;66629;47.346;19.038;2023-04-28T01:21:46;3.60;82.13
77519;DHT22;66629;47.346;19.038;2023-04-28T01:24:12;3.60;82.06
77519;DHT22;66629;47.346;19.038;2023-04-28T01:26:37;3.59;83.04
77519;DHT22;66629;47.346;19.038;2023-04-28T01:29:02;3.57;82.31
77519;DHT22;66629;47.346;19.038;2023-04-28T01:31:28;3.59;81.83
77519;DHT22;66629;47.346;19.038;2023-04-28T01:33:55;3.57;81.94
77519;DHT22;66629;47.346;19.038;2023-04-28T01:36:20;3.53;83.18
77519;DHT22;66629;47.346;19.038;2023-04-28T01:38:50;3.39;82.56
77519;DHT22;66629;47.346;19.038;2023-04-28T01:41:16;3.36;82.52
77519;DHT22;66629;47.346;19.038;2023-04-28T01:43:41;3.38;82.59
77519;DHT22;66629;47.346;19.038;2023-04-28T01:46:08;3.33;82.31
77519;DHT22;66629;47.346;19.038;2023-04-28T01:48:34;3.33;81.64
77519;DHT22;66629;47.346;19.038;2023-04-28T01:50:59;3.35;81.80
77519;DHT22;66629;47.346;19.038;2023-04-28T01:53:24;3.36;81.72
77519;DHT22;66629;47.346;19.038;2023-04-28T01:55:50;3.23;83.02
77519;DHT22;66629;47.346;19.038;2023-04-28T01:58:15;3.14;84.68
77519;DHT22;66629;47.346;19.038;2023-04-28T02:00:41;3.19;85.03
77519;DHT22;66629;47.346;19.038;2023-04-28T02:03:06;3.25;84.91
77519;DHT22;66629;47.346;19.038;2023-04-28T02:05:32;3.22;83.57
77519;DHT22;66629;47.346;19.038;2023-04-28T02:07:57;3.22;83.72
77519;DHT22;66629;47.346;19.038;2023-04-28T02:10:22;3.23;83.94
77519;DHT22;66629;47.346;19.038;2023-04-28T02:12:48;3.22;83.45
77519;DHT22;66629;47.346;19.038;2023-04-28T02:15:13;3.18;83.37
77519;DHT22;66629;47.346;19.038;2023-04-28T02:17:39;3.14;83.92
77519;DHT22;66629;47.346;19.038;2023-04-28T02:20:06;3.15;84.56
77519;DHT22;66629;47.346;19.038;2023-04-28T02:22:31;3.14;83.64
77519;DHT22;66629;47.346;19.038;2023-04-28T02:24:57;3.09;83.16
77519;DHT22;66629;47.346;19.038;2023-04-28T02:27:22;3.12;83.80
77519;DHT22;66629;47.346;19.038;2023-04-28T02:29:48;3.12;83.38
77519;DHT22;66629;47.346;19.038;2023-04-28T02:32:13;3.16;83.73
77519;DHT22;66629;47.346;19.038;2023-04-28T02:34:39;3.12;83.59
77519;DHT22;66629;47.346;19.038;2023-04-28T02:37:04;3.12;83.87
77519;DHT22;66629;47.346;19.038;2023-04-28T02:39:30;3.12;83.52
77519;DHT22;66629;47.346;19.038;2023-04-28T02:41:57;3.12;83.84
77519;DHT22;66629;47.346;19.038;2023-04-28T02:44:22;3.04;84.09
77519;DHT22;66629;47.346;19.038;2023-04-28T02:46:48;3.05;83.87
77519;DHT22;66629;47.346;19.038;2023-04-28T02:49:13;3.04;83.34
77519;DHT22;66629;47.346;19.038;2023-04-28T02:51:39;3.00;83.22
77519;DHT22;66629;47.346;19.038;2023-04-28T02:54:04;3.01;83.39
77519;DHT22;66629;47.346;19.038;2023-04-28T02:56:31;3.01;83.64
77519;DHT22;66629;47.346;19.038;2023-04-28T02:58:57;2.98;83.84
77519;DHT22;66629;47.346;19.038;2023-04-28T03:01:22;2.93;84.49
77519;DHT22;66629;47.346;19.038;2023-04-28T03:03:48;2.90;83.72
77519;DHT22;66629;47.346;19.038;2023-04-28T03:06:14;2.87;83.89
77519;DHT22;66629;47.346;19.038;2023-04-28T03:08:39;2.90;83.27
77519;DHT22;66629;47.346;19.038;2023-04-28T03:11:05;2.90;83.24
77519;DHT22;66629;47.346;19.038;2023-04-28T03:13:31;2.87;83.65
77519;DHT22;66629;47.346;19.038;2023-04-28T03:15:56;2.84;84.64
77519;DHT22;66629;47.346;19.038;2023-04-28T03:18:22;2.84;84.73
77519;DHT22;66629;47.346;19.038;2023-04-28T03:20:48;2.84;84.42
77519;DHT22;66629;47.346;19.038;2023-04-28T03:23:13;2.84;84.28
77519;DHT22;66629;47.346;19.038;2023-04-28T03:25:39;2.83;84.83
77519;DHT22;66629;47.346;19.038;2023-04-28T03:28:04;2.84;84.79
77519;DHT22;66629;47.346;19.038;2023-04-28T03:30:30;2.98;85.82
77519;DHT22;66629;47.346;19.038;2023-04-28T03:32:55;2.98;84.48
77519;DHT22;66629;47.346;19.038;2023-04-28T03:35:21;3.00;84.63
77519;DHT22;66629;47.346;19.038;2023-04-28T03:37:46;2.97;84.21
77519;DHT22;66629;47.346;19.038;2023-04-28T03:40:12;3.12;85.73
77519;DHT22;66629;47.346;19.038;2023-04-28T03:42:37;3.25;85.70
77519;DHT22;66629;47.346;19.038;2023-04-28T03:45:03;3.28;84.83
77519;DHT22;66629;47.346;19.038;2023-04-28T03:47:29;3.30;84.46
77519;DHT22;66629;47.346;19.038;2023-04-28T03:49:54;3.30;84.16
77519;DHT22;66629;47.346;19.038;2023-04-28T03:52:19;3.42;83.58
77519;DHT22;66629;47.346;19.038;2023-04-28T03:54:45;3.47;83.93
77519;DHT22;66629;47.346;19.038;2023-04-28T03:57:11;3.49;83.44
77519;DHT22;66629;47.346;19.038;2023-04-28T03:59:36;3.54;83.72
77519;DHT22;66629;47.346;19.038;2023-04-28T04:02:02;3.46;83.95
77519;DHT22;66629;47.346;19.038;2023-04-28T04:04:27;3.49;83.76
77519;DHT22;66629;47.346;19.038;2023-04-28T04:06:53;3.44;83.95
77519;DHT22;66629;47.346;19.038;2023-04-28T04:09:18;3.63;84.70
77519;DHT22;66629;47.346;19.038;2023-04-28T04:11:44;3.88;83.96
77519;DHT22;66629;47.346;19.038;2023-04-28T04:14:09;4.10;83.32
77519;DHT22;66629;47.346;19.038;2023-04-28T04:16:35;4.34;82.06
77519;DHT22;66629;47.346;19.038;2023-04-28T04:19:01;4.54;81.14
77519;DHT22;66629;47.346;19.038;2023-04-28T04:21:26;4.74;80.63
77519;DHT22;66629;47.346;19.038;2023-04-28T04:23:52;5.01;79.66
77519;DHT22;66629;47.346;19.038;2023-04-28T04:26:18;5.28;78.50
77519;DHT22;66629;47.346;19.038;2023-04-28T04:28:43;5.49;77.35
77519;DHT22;66629;47.346;19.038;2023-04-28T04:31:08;5.72;78.11
77519;DHT22;66629;47.346;19.038;2023-04-28T04:33:34;5.83;75.56
77519;DHT22;66629;47.346;19.038;2023-04-28T04:36:01;6.03;74.42
77519;DHT22;66629;47.346;19.038;2023-04-28T04:38:27;6.38;73.65
77519;DHT22;66629;47.346;19.038;2023-04-28T04:40:52;6.41;71.66
77519;DHT22;66629;47.346;19.038;2023-04-28T04:43:18;6.50;71.00
77519;DHT22;66629;47.346;19.038;2023-04-28T04:45:43;6.73;69.50
77519;DHT22;66629;47.346;19.038;2023-04-28T04:48:10;6.87;69.66
77519;DHT22;66629;47.346;19.038;2023-04-28T04:50:35;6.91;69.00
77519;DHT22;66629;47.346;19.038;2023-04-28T04:53:00;6.80;69.17
77519;DHT22;66629;47.346;19.038;2023-04-28T04:55:26;6.84;69.61
77519;DHT22;66629;47.346;19.038;2023-04-28T04:57:51;6.87;69.54
77519;DHT22;66629;47.346;19.038;2023-04-28T05:00:17;7.11;69.81
77519;DHT22;66629;47.346;19.038;2023-04-28T05:02:43;7.28;69.11
77519;DHT22;66629;47.346;19.038;2023-04-28T05:05:08;7.33;69.18
77519;DHT22;66629;47.346;19.038;2023-04-28T05:07:34;7.23;69.82
77519;DHT22;66629;47.346;19.038;2023-04-28T05:10:00;7.74;68.38
77519;DHT22;66629;47.346;19.038;2023-04-28T05:12:25;7.49;67.37
77519;DHT22;66629;47.346;19.038;2023-04-28T05:14:50;7.46;68.84
77519;DHT22;66629;47.346;19.038;2023-04-28T05:17:16;7.95;68.67
77519;DHT22;66629;47.346;19.038;2023-04-28T05:19:41;8.30;67.04
77519;DHT22;66629;47.346;19.038;2023-04-28T05:22:07;9.00;66.45
77519;DHT22;66629;47.346;19.038;2023-04-28T05:24:32;8.97;65.72
77519;DHT22;66629;47.346;19.038;2023-04-28T05:26:58;9.14;65.13
77519;DHT22;66629;47.346;19.038;2023-04-28T05:29:24;9.47;64.12
77519;DHT22;66629;47.346;19.038;2023-04-28T05:31:49;9.56;63.13
77519;DHT22;66629;47.346;19.038;2023-04-28T05:34:14;9.71;62.89
77519;DHT22;66629;47.346;19.038;2023-04-28T05:36:40;9.23;63.73
77519;DHT22;66629;47.346;19.038;2023-04-28T05:39:06;8.89;63.56
77519;DHT22;66629;47.346;19.038;2023-04-28T05:41:32;8.75;64.34
77519;DHT22;66629;47.346;19.038;2023-04-28T05:43:58;9.23;63.61
77519;DHT22;66629;47.346;19.038;2023-04-28T05:46:23;9.51;62.46
77519;DHT22;66629;47.346;19.038;2023-04-28T05:48:49;9.68;61.78
77519;DHT22;66629;47.346;19.038;2023-04-28T05:51:14;9.49;61.74
77519;DHT22;66629;47.346;19.038;2023-04-28T05:53:40;9.65;62.19
77519;DHT22;66629;47.346;19.038;2023-04-28T05:56:06;10.22;60.91
77519;DHT22;66629;47.346;19.038;2023-04-28T05:58:32;10.17;59.33
77519;DHT22;66629;47.346;19.038;2023-04-28T06:00:57;10.22;60.31
77519;DHT22;66629;47.346;19.038;2023-04-28T06:03:23;10.73;58.92
77519;DHT22;66629;47.346;19.038;2023-04-28T06:05:48;10.69;57.76
77519;DHT22;66629;47.346;19.038;2023-04-28T06:08:14;10.20;60.22
77519;DHT22;66629;47.346;19.038;2023-04-28T06:10:39;10.45;59.37
77519;DHT22;66629;47.346;19.038;2023-04-28T06:13:05;10.35;60.49
77519;DHT22;66629;47.346;19.038;2023-04-28T06:15:31;10.30;59.60
77519;DHT22;66629;47.346;19.038;2023-04-28T06:17:57;10.13;60.82
77519;DHT22;66629;47.346;19.038;2023-04-28T06:20:26;10.30;59.15
77519;DHT22;66629;47.346;19.038;2023-04-28T06:22:51;10.73;59.62
77519;DHT22;66629;47.346;19.038;2023-04-28T06:25:17;10.55;59.60
77519;DHT22;66629;47.346;19.038;2023-04-28T06:27:42;10.87;58.08
77519;DHT22;66629;47.346;19.038;2023-04-28T06:30:08;11.31;56.47
77519;DHT22;66629;47.346;19.038;2023-04-28T06:32:34;11.47;57.10
77519;DHT22;66629;47.346;19.038;2023-04-28T06:34:59;11.28;56.16
77519;DHT22;66629;47.346;19.038;2023-04-28T06:37:25;11.57;55.74
77519;DHT22;66629;47.346;19.038;2023-04-28T06:39:50;11.43;55.63
77519;DHT22;66629;47.346;19.038;2023-04-28T06:42:16;11.85;56.54
77519;DHT22;66629;47.346;19.038;2023-04-28T06:44:43;12.09;55.05
77519;DHT22;66629;47.346;19.038;2023-04-28T06:47:09;12.53;54.58
77519;DHT22;66629;47.346;19.038;2023-04-28T06:49:35;11.71;54.85
77519;DHT22;66629;47.346;19.038;2023-04-28T06:52:01;11.94;55.59
77519;DHT22;66629;47.346;19.038;2023-04-28T06:54:26;11.78;55.18
77519;DHT22;66629;47.346;19.038;2023-04-28T06:56:51;11.49;56.07
77519;DHT22;66629;47.346;19.038;2023-04-28T06:59:25;11.56;56.12
77519;DHT22;66629;47.346;19.038;2023-04-28T07:01:50;11.69;55.66
77519;DHT22;66629;47.346;19.038;2023-04-28T07:04:17;11.83;56.04
77519;DHT22;66629;47.346;19.038;2023-04-28T07:06:42;11.84;55.20
77519;DHT22;66629;47.346;19.038;2023-04-28T07:09:07;12.14;54.13
77519;DHT22;66629;47.346;19.038;2023-04-28T07:11:33;12.26;54.25
77519;DHT22;66629;47.346;19.038;2023-04-28T07:13:58;12.96;52.68
77519;DHT22;66629;47.346;19.038;2023-04-28T07:16:24;13.27;53.14
77519;DHT22;66629;47.346;19.038;2023-04-28T07:18:49;13.55;52.31
77519;DHT22;66629;47.346;19.038;2023-04-28T07:21:15;13.61;51.39
77519;DHT22;66629;47.346;19.038;2023-04-28T07:23:40;13.67;50.64
77519;DHT22;66629;47.346;19.038;2023-04-28T07:26:07;14.08;50.41
77519;DHT22;66629;47.346;19.038;2023-04-28T07:28:32;14.20;50.03
77519;DHT22;66629;47.346;19.038;2023-04-28T07:30:58;14.40;49.34
77519;DHT22;66629;47.346;19.038;2023-04-28T07:33:23;13.75;49.90
77519;DHT22;66629;47.346;19.038;2023-04-28T07:35:49;13.81;51.10
77519;DHT22;66629;47.346;19.038;2023-04-28T07:38:16;13.76;52.06
77519;DHT22;66629;47.346;19.038;2023-04-28T07:40:42;14.36;50.46
77519;DHT22;66629;47.346;19.038;2023-04-28T07:43:08;14.40;50.45
77519;DHT22;66629;47.346;19.038;2023-04-28T07:45:37;14.12;49.65
77519;DHT22;66629;47.346;19.038;2023-04-28T07:48:03;14.48;49.55
77519;DHT22;66629;47.346;19.038;2023-04-28T07:50:29;14.57;48.40
77519;DHT22;66629;47.346;19.038;2023-04-28T07:52:54;14.62;49.53
77519;DHT22;66629;47.346;19.038;2023-04-28T07:55:20;15.14;47.71
77519;DHT22;66629;47.346;19.038;2023-04-28T07:57:45;15.04;47.47
77519;DHT22;66629;47.346;19.038;2023-04-28T08:00:11;15.31;48.08
77519;DHT22;66629;47.346;19.038;2023-04-28T08:02:37;15.98;46.70
77519;DHT22;66629;47.346;19.038;2023-04-28T08:05:02;15.61;46.30
77519;DHT22;66629;47.346;19.038;2023-04-28T08:07:28;15.86;47.18
77519;DHT22;66629;47.346;19.038;2023-04-28T08:09:53;15.96;46.96
77519;DHT22;66629;47.346;19.038;2023-04-28T08:12:19;16.42;46.65
77519;DHT22;66629;47.346;19.038;2023-04-28T08:14:46;16.60;45.75
77519;DHT22;66629;47.346;19.038;2023-04-28T08:17:12;17.07;45.23
77519;DHT22;66629;47.346;19.038;2023-04-28T08:19:38;16.20;42.92
77519;DHT22;66629;47.346;19.038;2023-04-28T08:22:04;16.41;43.66
77519;DHT22;66629;47.346;19.038;2023-04-28T08:24:31;16.48;42.61
77519;DHT22;66629;47.346;19.038;2023-04-28T08:27:00;16.76;39.93
77519;DHT22;66629;47.346;19.038;2023-04-28T08:29:28;17.19;40.87
77519;DHT22;66629;47.346;19.038;2023-04-28T08:31:53;16.74;39.73
77519;DHT22;66629;47.346;19.038;2023-04-28T08:34:19;16.76;39.38
77519;DHT22;66629;47.346;19.038;2023-04-28T08:36:45;16.64;40.05
77519;DHT22;66629;47.346;19.038;2023-04-28T08:39:11;17.36;40.11
77519;DHT22;66629;47.346;19.038;2023-04-28T08:41:37;17.42;39.63
77519;DHT22;66629;47.346;19.038;2023-04-28T08:44:07;17.45;38.09
77519;DHT22;66629;47.346;19.038;2023-04-28T08:46:33;17.57;37.34
77519;DHT22;66629;47.346;19.038;2023-04-28T08:49:00;17.75;37.11
77519;DHT22;66629;47.346;19.038;2023-04-28T08:51:37;18.15;36.78
77519;DHT22;66629;47.346;19.038;2023-04-28T08:54:09;17.66;37.09
77519;DHT22;66629;47.346;19.038;2023-04-28T08:56:36;17.87;36.61
77519;DHT22;66629;47.346;19.038;2023-04-28T08:59:03;17.97;37.05
77519;DHT22;66629;47.346;19.038;2023-04-28T09:01:30;18.23;37.58
77519;DHT22;66629;47.346;19.038;2023-04-28T09:03:55;18.68;37.31
77519;DHT22;66629;47.346;19.038;2023-04-28T09:06:21;18.33;36.30
77519;DHT22;66629;47.346;19.038;2023-04-28T09:08:47;18.26;35.91
77519;DHT22;66629;47.346;19.038;2023-04-28T09:11:13;17.67;35.48
77519;DHT22;66629;47.346;19.038;2023-04-28T09:13:40;17.32;35.69
77519;DHT22;66629;47.346;19.038;2023-04-28T09:16:06;17.74;35.68
77519;DHT22;66629;47.346;19.038;2023-04-28T09:18:32;17.95;35.91
77519;DHT22;66629;47.346;19.038;2023-04-28T09:21:05;18.25;35.04
77519;DHT22;66629;47.346;19.038;2023-04-28T09:23:31;17.80;34.27
77519;DHT22;66629;47.346;19.038;2023-04-28T09:26:03;18.08;36.87
77519;DHT22;66629;47.346;19.038;2023-04-28T09:28:30;18.02;35.53
77519;DHT22;66629;47.346;19.038;2023-04-28T09:30:55;18.32;37.18
77519;DHT22;66629;47.346;19.038;2023-04-28T09:33:21;18.47;36.31
77519;DHT22;66629;47.346;19.038;2023-04-28T09:35:47;17.98;36.29
77519;DHT22;66629;47.346;19.038;2023-04-28T09:38:14;17.94;36.67
77519;DHT22;66629;47.346;19.038;2023-04-28T09:43:25;17.89;35.69
77519;DHT22;66629;47.346;19.038;2023-04-28T09:45:50;17.39;35.94
77519;DHT22;66629;47.346;19.038;2023-04-28T09:48:17;18.21;36.90
77519;DHT22;66629;47.346;19.038;2023-04-28T09:50:52;18.56;35.12
77519;DHT22;66629;47.346;19.038;2023-04-28T09:53:22;18.72;36.62
77519;DHT22;66629;47.346;19.038;2023-04-28T09:55:48;19.38;34.63
77519;DHT22;66629;47.346;19.038;2023-04-28T09:58:20;19.20;35.72
77519;DHT22;66629;47.346;19.038;2023-04-28T10:00:51;19.02;35.23
77519;DHT22;66629;47.346;19.038;2023-04-28T10:03:16;18.99;34.20
77519;DHT22;66629;47.346;19.038;2023-04-28T10:05:43;18.99;33.41
77519;DHT22;66629;47.346;19.038;2023-04-28T10:08:09;18.63;34.61
77519;DHT22;66629;47.346;19.038;2023-04-28T10:10:36;18.51;35.11
77519;DHT22;66629;47.346;19.038;2023-04-28T10:13:02;17.78;35.66
77519;DHT22;66629;47.346;19.038;2023-04-28T10:15:27;17.75;36.23
77519;DHT22;66629;47.346;19.038;2023-04-28T10:17:53;18.23;37.78
77519;DHT22;66629;47.346;19.038;2023-04-28T10:20:19;18.92;37.17
77519;DHT22;66629;47.346;19.038;2023-04-28T10:25:26;17.84;36.52
77519;DHT22;66629;47.346;19.038;2023-04-28T10:27:52;18.44;36.60
77519;DHT22;66629;47.346;19.038;2023-04-28T10:30:20;18.96;36.98
77519;DHT22;66629;47.346;19.038;2023-04-28T10:32:46;18.82;36.34
77519;DHT22;66629;47.346;19.038;2023-04-28T10:38:09;19.10;34.69
77519;DHT22;66629;47.346;19.038;2023-04-28T10:40:37;18.91;34.51
77519;DHT22;66629;47.346;19.038;2023-04-28T10:43:04;18.92;36.81
77519;DHT22;66629;47.346;19.038;2023-04-28T10:48:14;18.43;35.60
77519;DHT22;66629;47.346;19.038;2023-04-28T10:56:18;18.44;38.01
77519;DHT22;66629;47.346;19.038;2023-04-28T10:58:51;18.69;37.97
77519;DHT22;66629;47.346;19.038;2023-04-28T11:06:36;18.65;36.66
77519;DHT22;66629;47.346;19.038;2023-04-28T11:12:02;18.81;37.45
77519;DHT22;66629;47.346;19.038;2023-04-28T11:16:54;18.53;36.89
77519;DHT22;66629;47.346;19.038;2023-04-28T11:19:23;18.08;36.87
77519;DHT22;66629;47.346;19.038;2023-04-28T11:21:52;17.75;37.30
77519;DHT22;66629;47.346;19.038;2023-04-28T11:24:20;17.29;38.53
77519;DHT22;66629;47.346;19.038;2023-04-28T11:26:46;17.40;39.17
77519;DHT22;66629;47.346;19.038;2023-04-28T11:29:12;17.66;38.13
77519;DHT22;66629;47.346;19.038;2023-04-28T11:31:39;17.80;37.90
77519;DHT22;66629;47.346;19.038;2023-04-28T11:34:09;18.25;38.12
77519;DHT22;66629;47.346;19.038;2023-04-28T11:36:40;18.21;37.59
77519;DHT22;66629;47.346;19.038;2023-04-28T11:39:08;18.09;37.03
77519;DHT22;66629;47.346;19.038;2023-04-28T11:41:35;17.91;38.34
77519;DHT22;66629;47.346;19.038;2023-04-28T11:44:09;17.70;37.97
77519;DHT22;66629;47.346;19.038;2023-04-28T11:46:35;17.67;38.07
77519;DHT22;66629;47.346;19.038;2023-04-28T11:49:04;17.71;39.15
77519;DHT22;66629;47.346;19.038;2023-04-28T11:51:35;17.70;39.33
77519;DHT22;66629;47.346;19.038;2023-04-28T11:54:01;17.92;38.18
77519;DHT22;66629;47.346;19.038;2023-04-28T11:56:28;17.66;38.49
77519;DHT22;66629;47.346;19.038;2023-04-28T11:59:05;17.42;38.71
77519;DHT22;66629;47.346;19.038;2023-04-28T12:01:32;17.67;38.90
77519;DHT22;66629;47.346;19.038;2023-04-28T12:03:58;17.78;39.33
77519;DHT22;66629;47.346;19.038;2023-04-28T12:06:24;17.73;39.03
77519;DHT22;66629;47.346;19.038;2023-04-28T12:08:50;17.64;39.18
77519;DHT22;66629;47.346;19.038;2023-04-28T12:11:18;17.47;39.73
77519;DHT22;66629;47.346;19.038;2023-04-28T12:14:02;17.53;39.79
77519;DHT22;66629;47.346;19.038;2023-04-28T12:16:41;17.57;39.88
77519;DHT22;66629;47.346;19.038;2023-04-28T12:19:11;17.54;39.89
77519;DHT22;66629;47.346;19.038;2023-04-28T12:21:37;17.66;40.57
77519;DHT22;66629;47.346;19.038;2023-04-28T12:24:18;17.47;39.62
77519;DHT22;66629;47.346;19.038;2023-04-28T12:26:43;17.70;40.13
77519;DHT22;66629;47.346;19.038;2023-04-28T12:29:09;17.81;38.70
77519;DHT22;66629;47.346;19.038;2023-04-28T12:31:54;17.95;38.84
77519;DHT22;66629;47.346;19.038;2023-04-28T12:34:21;18.34;39.68
77519;DHT22;66629;47.346;19.038;2023-04-28T12:36:46;18.60;40.39
77519;DHT22;66629;47.346;19.038;2023-04-28T12:39:13;18.17;39.80
77519;DHT22;66629;47.346;19.038;2023-04-28T12:41:40;18.02;38.71
77519;DHT22;66629;47.346;19.038;2023-04-28T12:44:06;17.92;38.97
77519;DHT22;66629;47.346;19.038;2023-04-28T12:46:32;18.01;39.33
77519;DHT22;66629;47.346;19.038;2023-04-28T12:48:57;18.12;38.91
77519;DHT22;66629;47.346;19.038;2023-04-28T12:51:23;18.10;38.92
77519;DHT22;66629;47.346;19.038;2023-04-28T12:53:48;17.99;40.41
77519;DHT22;66629;47.346;19.038;2023-04-28T12:56:14;18.09;40.01
77519;DHT22;66629;47.346;19.038;2023-04-28T12:58:39;18.10;38.85
77519;DHT22;66629;47.346;19.038;2023-04-28T13:01:05;17.85;39.33
77519;DHT22;66629;47.346;19.038;2023-04-28T13:03:30;17.99;40.59
77519;DHT22;66629;47.346;19.038;2023-04-28T13:05:56;17.94;39.90
77519;DHT22;66629;47.346;19.038;2023-04-28T13:08:22;17.91;39.55
77519;DHT22;66629;47.346;19.038;2023-04-28T13:10:47;17.87;39.46
77519;DHT22;66629;47.346;19.038;2023-04-28T13:13:12;17.81;39.58
77519;DHT22;66629;47.346;19.038;2023-04-28T13:15:38;18.09;41.33
77519;DHT22;66629;47.346;19.038;2023-04-28T13:18:03;18.02;38.71
77519;DHT22;66629;47.346;19.038;2023-04-28T13:20:29;18.26;38.92
77519;DHT22;66629;47.346;19.038;2023-04-28T13:22:54;18.85;38.37
77519;DHT22;66629;47.346;19.038;2023-04-28T13:25:20;18.85;37.17
77519;DHT22;66629;47.346;19.038;2023-04-28T13:27:46;18.98;37.61
77519;DHT22;66629;47.346;19.038;2023-04-28T13:30:12;18.75;38.66
77519;DHT22;66629;47.346;19.038;2023-04-28T13:32:37;18.71;38.23
77519;DHT22;66629;47.346;19.038;2023-04-28T13:35:03;19.22;39.32
77519;DHT22;66629;47.346;19.038;2023-04-28T13:37:29;18.81;37.89
77519;DHT22;66629;47.346;19.038;2023-04-28T13:39:55;19.30;39.50
77519;DHT22;66629;47.346;19.038;2023-04-28T13:42:20;19.37;38.87
77519;DHT22;66629;47.346;19.038;2023-04-28T13:44:45;18.76;39.15
77519;DHT22;66629;47.346;19.038;2023-04-28T13:47:13;18.65;39.39
77519;DHT22;66629;47.346;19.038;2023-04-28T13:49:38;18.88;38.89
77519;DHT22;66629;47.346;19.038;2023-04-28T13:52:04;19.16;38.31
77519;DHT22;66629;47.346;19.038;2023-04-28T13:54:30;19.24;37.88
77519;DHT22;66629;47.346;19.038;2023-04-28T13:56:55;19.09;38.57
77519;DHT22;66629;47.346;19.038;2023-04-28T13:59:21;19.34;38.44
77519;DHT22;66629;47.346;19.038;2023-04-28T14:01:46;19.27;38.94
77519;DHT22;66629;47.346;19.038;2023-04-28T14:04:12;19.19;39.64
77519;DHT22;66629;47.346;19.038;2023-04-28T14:06:39;19.17;37.92
77519;DHT22;66629;47.346;19.038;2023-04-28T14:09:04;18.65;38.79
77519;DHT22;66629;47.346;19.038;2023-04-28T14:11:30;18.89;39.41
77519;DHT22;66629;47.346;19.038;2023-04-28T14:13:56;18.30;39.64
77519;DHT22;66629;47.346;19.038;2023-04-28T14:16:21;18.32;39.49
77519;DHT22;66629;47.346;19.038;2023-04-28T14:18:47;18.54;40.53
77519;DHT22;66629;47.346;19.038;2023-04-28T14:21:12;18.74;39.66
77519;DHT22;66629;47.346;19.038;2023-04-28T14:23:37;18.57;39.12
77519;DHT22;66629;47.346;19.038;2023-04-28T14:26:03;18.79;39.65
77519;DHT22;66629;47.346;19.038;2023-04-28T14:28:29;18.81;39.31
77519;DHT22;66629;47.346;19.038;2023-04-28T14:30:55;18.89;40.16
77519;DHT22;66629;47.346;19.038;2023-04-28T14:33:20;18.85;40.54
77519;DHT22;66629;47.346;19.038;2023-04-28T14:35:46;18.79;40.32
77519;DHT22;66629;47.346;19.038;2023-04-28T14:38:12;18.75;41.04
77519;DHT22;66629;47.346;19.038;2023-04-28T14:40:38;18.63;42.23
77519;DHT22;66629;47.346;19.038;2023-04-28T14:43:03;18.87;40.94
77519;DHT22;66629;47.346;19.038;2023-04-28T14:45:29;18.88;40.45
77519;DHT22;66629;47.346;19.038;2023-04-28T14:47:54;18.98;41.69
77519;DHT22;66629;47.346;19.038;2023-04-28T14:50:20;18.91;40.76
77519;DHT22;66629;47.346;19.038;2023-04-28T14:52:45;18.91;39.88
77519;DHT22;66629;47.346;19.038;2023-04-28T14:55:11;18.81;40.46
77519;DHT22;66629;47.346;19.038;2023-04-28T14:57:37;18.53;40.54
77519;DHT22;66629;47.346;19.038;2023-04-28T15:00:04;18.47;41.09
77519;DHT22;66629;47.346;19.038;2023-04-28T15:02:31;18.57;41.09
77519;DHT22;66629;47.346;19.038;2023-04-28T15:04:57;18.51;41.46
77519;DHT22;66629;47.346;19.038;2023-04-28T15:07:23;18.21;42.05
77519;DHT22;66629;47.346;19.038;2023-04-28T15:09:58;18.17;41.95
77519;DHT22;66629;47.346;19.038;2023-04-28T15:12:24;18.08;42.15
77519;DHT22;66629;47.346;19.038;2023-04-28T15:14:50;18.13;42.87
77519;DHT22;66629;47.346;19.038;2023-04-28T15:17:18;18.01;42.49
77519;DHT22;66629;47.346;19.038;2023-04-28T15:19:43;17.91;42.21
77519;DHT22;66629;47.346;19.038;2023-04-28T15:22:09;17.91;42.74
77519;DHT22;66629;47.346;19.038;2023-04-28T15:24:34;17.99;42.74
77519;DHT22;66629;47.346;19.038;2023-04-28T15:26:59;17.98;42.24
77519;DHT22;66629;47.346;19.038;2023-04-28T15:29:28;18.01;43.13
77519;DHT22;66629;47.346;19.038;2023-04-28T15:31:53;17.92;43.09
77519;DHT22;66629;47.346;19.038;2023-04-28T15:34:20;17.77;43.28
77519;DHT22;66629;47.346;19.038;2023-04-28T15:36:46;17.63;43.41
77519;DHT22;66629;47.346;19.038;2023-04-28T15:39:12;17.63;44.31
77519;DHT22;66629;47.346;19.038;2023-04-28T15:41:38;17.54;43.21
77519;DHT22;66629;47.346;19.038;2023-04-28T15:44:03;17.46;44.09